TAF Text Data
IDs:
Format:
Raw Decoded Include METAR

Data at: 0408 UTC 24 Jun 2021

TAF for:KCLT (Charlotte/Douglas In, NC, US) issued at 2334 UTC 23 Jun 2021
Text:KCLT 232334Z 2400/2506 08007KT P6SM FEW050 SCT070
Forecast period:0000 to 0300 UTC 24 June 2021
Forecast type:FROM: standard forecast or significant change
Winds:from the E (80 degrees) at 8 MPH (7 knots; 3.6 m/s)
Visibility:6 or more sm (10+ km)
Ceiling:at least 12,000 feet AGL
Clouds: few clouds at 5000 feet AGL, scattered clouds at 7000 feet AGL
Text:FM240300 08005KT P6SM SCT060
Forecast period:0300 to 1500 UTC 24 June 2021
Forecast type:FROM: standard forecast or significant change
Winds:from the E (80 degrees) at 6 MPH (5 knots; 2.6 m/s)
Visibility:6 or more sm (10+ km)
Ceiling:at least 12,000 feet AGL
Clouds: scattered clouds at 6000 feet AGL
Text:FM241500 07008KT P6SM FEW050 FEW250
Forecast period:1500 UTC 24 June 2021 to 0200 UTC 25 June 2021
Forecast type:FROM: standard forecast or significant change
Winds:from the ENE (70 degrees) at 9 MPH (8 knots; 4.1 m/s)
Visibility:6 or more sm (10+ km)
Ceiling:at least 12,000 feet AGL
Clouds: few clouds at 5000 feet AGL, few clouds at 25000 feet AGL
Text:FM250200 08004KT P6SM FEW250
Forecast period:0200 to 0600 UTC 25 June 2021
Forecast type:FROM: standard forecast or significant change
Winds:from the E (80 degrees) at 5 MPH (4 knots; 2.1 m/s)
Visibility:6 or more sm (10+ km)
Ceiling:at least 12,000 feet AGL
Clouds: few clouds at 25000 feet AGL